sensor_id;sensor_type;location;lat;lon;timestamp;temperature;humidity
19888;DHT22;10106;51.332;12.336;2023-05-25T00:01:31;8.70;99.90
19888;DHT22;10106;51.332;12.336;2023-05-25T00:03:59;8.60;99.90
19888;DHT22;10106;51.332;12.336;2023-05-25T00:06:27;8.60;99.90
19888;DHT22;10106;51.332;12.336;2023-05-25T00:09:03;8.60;99.90
19888;DHT22;10106;51.332;12.336;2023-05-25T00:11:29;8.60;99.90
19888;DHT22;10106;51.332;12.336;2023-05-25T00:13:54;8.60;99.90
19888;DHT22;10106;51.332;12.336;2023-05-25T00:16:20;8.60;99.90
19888;DHT22;10106;51.332;12.336;2023-05-25T00:18:46;8.60;99.90
19888;DHT22;10106;51.332;12.336;2023-05-25T00:21:13;8.60;99.90
19888;DHT22;10106;51.332;12.336;2023-05-25T00:23:40;8.60;99.90
19888;DHT22;10106;51.332;12.336;2023-05-25T00:26:06;8.60;99.90
19888;DHT22;10106;51.332;12.336;2023-05-25T00:28:32;8.60;99.90
19888;DHT22;10106;51.332;12.336;2023-05-25T00:30:58;8.50;99.90
19888;DHT22;10106;51.332;12.336;2023-05-25T00:33:24;8.50;99.90
19888;DHT22;10106;51.332;12.336;2023-05-25T00:35:50;8.40;99.90
19888;DHT22;10106;51.332;12.336;2023-05-25T00:38:20;8.30;99.90
19888;DHT22;10106;51.332;12.336;2023-05-25T00:40:54;8.30;99.90
19888;DHT22;10106;51.332;12.336;2023-05-25T00:43:20;8.40;99.90
19888;DHT22;10106;51.332;12.336;2023-05-25T00:45:47;8.40;99.90
19888;DHT22;10106;51.332;12.336;2023-05-25T00:48:13;8.40;99.90
19888;DHT22;10106;51.332;12.336;2023-05-25T00:50:40;8.30;99.90
19888;DHT22;10106;51.332;12.336;2023-05-25T00:53:08;8.30;99.90
19888;DHT22;10106;51.332;12.336;2023-05-25T00:55:44;8.20;99.90
19888;DHT22;10106;51.332;12.336;2023-05-25T00:58:12;8.20;99.90
19888;DHT22;10106;51.332;12.336;2023-05-25T01:00:41;8.20;99.90
19888;DHT22;10106;51.332;12.336;2023-05-25T01:03:11;8.20;99.90
19888;DHT22;10106;51.332;12.336;2023-05-25T01:05:46;8.10;99.90
19888;DHT22;10106;51.332;12.336;2023-05-25T01:08:13;8.10;99.90
19888;DHT22;10106;51.332;12.336;2023-05-25T01:10:45;8.00;99.90
19888;DHT22;10106;51.332;12.336;2023-05-25T01:13:14;8.10;99.90
19888;DHT22;10106;51.332;12.336;2023-05-25T01:15:41;8.00;99.90
19888;DHT22;10106;51.332;12.336;2023-05-25T01:18:07;8.00;99.90
19888;DHT22;10106;51.332;12.336;2023-05-25T01:20:34;8.00;99.90
19888;DHT22;10106;51.332;12.336;2023-05-25T01:25:36;8.10;99.90
19888;DHT22;10106;51.332;12.336;2023-05-25T01:28:16;8.10;99.90
19888;DHT22;10106;51.332;12.336;2023-05-25T01:30:47;8.10;99.90
19888;DHT22;10106;51.332;12.336;2023-05-25T01:33:16;8.20;99.90
19888;DHT22;10106;51.332;12.336;2023-05-25T01:35:43;8.10;99.90
19888;DHT22;10106;51.332;12.336;2023-05-25T01:38:09;8.10;99.90
19888;DHT22;10106;51.332;12.336;2023-05-25T01:40:35;8.00;99.90
19888;DHT22;10106;51.332;12.336;2023-05-25T01:43:01;8.00;99.90
19888;DHT22;10106;51.332;12.336;2023-05-25T01:45:27;8.00;99.90
19888;DHT22;10106;51.332;12.336;2023-05-25T01:53:44;7.90;99.90
19888;DHT22;10106;51.332;12.336;2023-05-25T01:56:13;7.90;99.90
19888;DHT22;10106;51.332;12.336;2023-05-25T01:58:44;7.90;99.90
19888;DHT22;10106;51.332;12.336;2023-05-25T02:01:13;7.90;99.90
19888;DHT22;10106;51.332;12.336;2023-05-25T02:03:43;7.90;99.90
19888;DHT22;10106;51.332;12.336;2023-05-25T02:06:11;7.90;99.90
19888;DHT22;10106;51.332;12.336;2023-05-25T02:08:36;7.90;99.90
19888;DHT22;10106;51.332;12.336;2023-05-25T02:11:02;7.80;99.90
19888;DHT22;10106;51.332;12.336;2023-05-25T02:13:28;7.80;99.90
19888;DHT22;10106;51.332;12.336;2023-05-25T02:15:54;7.80;99.90
19888;DHT22;10106;51.332;12.336;2023-05-25T02:18:20;7.80;99.90
19888;DHT22;10106;51.332;12.336;2023-05-25T02:20:46;7.70;99.90
19888;DHT22;10106;51.332;12.336;2023-05-25T02:23:12;7.80;99.90
19888;DHT22;10106;51.332;12.336;2023-05-25T02:25:38;7.70;99.90
19888;DHT22;10106;51.332;12.336;2023-05-25T02:28:03;7.70;99.90
19888;DHT22;10106;51.332;12.336;2023-05-25T02:30:30;7.70;99.90
19888;DHT22;10106;51.332;12.336;2023-05-25T02:32:55;7.70;99.90
19888;DHT22;10106;51.332;12.336;2023-05-25T02:35:21;7.70;99.90
19888;DHT22;10106;51.332;12.336;2023-05-25T02:37:47;7.60;99.90
19888;DHT22;10106;51.332;12.336;2023-05-25T02:40:13;7.70;99.90
19888;DHT22;10106;51.332;12.336;2023-05-25T02:42:39;7.70;99.90
19888;DHT22;10106;51.332;12.336;2023-05-25T02:45:08;7.70;99.90
19888;DHT22;10106;51.332;12.336;2023-05-25T02:47:35;7.60;99.90
19888;DHT22;10106;51.332;12.336;2023-05-25T02:50:01;7.60;99.90
19888;DHT22;10106;51.332;12.336;2023-05-25T02:52:27;7.60;99.90
19888;DHT22;10106;51.332;12.336;2023-05-25T02:54:55;7.60;99.90
19888;DHT22;10106;51.332;12.336;2023-05-25T02:57:21;7.60;99.90
19888;DHT22;10106;51.332;12.336;2023-05-25T02:59:47;7.50;99.90
19888;DHT22;10106;51.332;12.336;2023-05-25T03:02:13;7.50;99.90
19888;DHT22;10106;51.332;12.336;2023-05-25T03:04:39;7.50;99.90
19888;DHT22;10106;51.332;12.336;2023-05-25T03:07:06;7.50;99.90
19888;DHT22;10106;51.332;12.336;2023-05-25T03:09:32;7.50;99.90
19888;DHT22;10106;51.332;12.336;2023-05-25T03:11:57;7.50;99.90
19888;DHT22;10106;51.332;12.336;2023-05-25T03:14:23;7.60;99.90
19888;DHT22;10106;51.332;12.336;2023-05-25T03:16:49;7.50;99.90
19888;DHT22;10106;51.332;12.336;2023-05-25T03:19:15;7.60;99.90
19888;DHT22;10106;51.332;12.336;2023-05-25T03:21:40;7.60;99.90
19888;DHT22;10106;51.332;12.336;2023-05-25T03:24:06;7.70;99.90
19888;DHT22;10106;51.332;12.336;2023-05-25T03:26:32;7.80;99.90
19888;DHT22;10106;51.332;12.336;2023-05-25T03:28:58;7.70;99.90
19888;DHT22;10106;51.332;12.336;2023-05-25T03:31:24;7.80;99.90
19888;DHT22;10106;51.332;12.336;2023-05-25T03:33:50;7.90;99.90
19888;DHT22;10106;51.332;12.336;2023-05-25T03:36:16;8.10;99.90
19888;DHT22;10106;51.332;12.336;2023-05-25T03:38:43;8.10;99.90
19888;DHT22;10106;51.332;12.336;2023-05-25T03:41:09;8.20;99.90
19888;DHT22;10106;51.332;12.336;2023-05-25T03:43:34;8.30;99.90
19888;DHT22;10106;51.332;12.336;2023-05-25T03:46:00;8.50;99.90
19888;DHT22;10106;51.332;12.336;2023-05-25T03:48:26;8.90;99.90
19888;DHT22;10106;51.332;12.336;2023-05-25T03:50:52;9.30;99.90
19888;DHT22;10106;51.332;12.336;2023-05-25T03:53:18;9.60;99.90
19888;DHT22;10106;51.332;12.336;2023-05-25T03:55:44;10.00;99.90
19888;DHT22;10106;51.332;12.336;2023-05-25T03:58:09;10.40;99.90
19888;DHT22;10106;51.332;12.336;2023-05-25T04:00:36;10.80;99.90
19888;DHT22;10106;51.332;12.336;2023-05-25T04:03:02;11.20;99.90
19888;DHT22;10106;51.332;12.336;2023-05-25T04:05:27;11.60;99.90
19888;DHT22;10106;51.332;12.336;2023-05-25T04:07:53;12.00;99.90
19888;DHT22;10106;51.332;12.336;2023-05-25T04:10:20;12.40;99.90
19888;DHT22;10106;51.332;12.336;2023-05-25T04:12:46;12.70;99.90
19888;DHT22;10106;51.332;12.336;2023-05-25T04:15:12;13.00;99.90
19888;DHT22;10106;51.332;12.336;2023-05-25T04:17:39;13.20;99.90
19888;DHT22;10106;51.332;12.336;2023-05-25T04:20:06;13.50;99.90
19888;DHT22;10106;51.332;12.336;2023-05-25T04:22:33;13.80;99.90
19888;DHT22;10106;51.332;12.336;2023-05-25T04:24:59;13.90;99.90
19888;DHT22;10106;51.332;12.336;2023-05-25T04:27:24;14.10;99.90
19888;DHT22;10106;51.332;12.336;2023-05-25T04:29:51;14.40;99.90
19888;DHT22;10106;51.332;12.336;2023-05-25T04:32:19;14.80;99.90
19888;DHT22;10106;51.332;12.336;2023-05-25T04:34:46;14.80;99.90
19888;DHT22;10106;51.332;12.336;2023-05-25T04:37:12;15.20;99.90
19888;DHT22;10106;51.332;12.336;2023-05-25T04:39:39;14.90;99.90
19888;DHT22;10106;51.332;12.336;2023-05-25T04:42:05;14.70;99.90
19888;DHT22;10106;51.332;12.336;2023-05-25T04:44:32;14.20;99.90
19888;DHT22;10106;51.332;12.336;2023-05-25T04:46:58;14.20;99.90
19888;DHT22;10106;51.332;12.336;2023-05-25T04:49:27;14.70;99.90
19888;DHT22;10106;51.332;12.336;2023-05-25T04:51:52;15.30;99.90
19888;DHT22;10106;51.332;12.336;2023-05-25T04:54:18;15.90;99.90
19888;DHT22;10106;51.332;12.336;2023-05-25T04:56:44;16.50;99.90
19888;DHT22;10106;51.332;12.336;2023-05-25T04:59:10;16.90;99.90
19888;DHT22;10106;51.332;12.336;2023-05-25T05:06:46;18.00;99.90
19888;DHT22;10106;51.332;12.336;2023-05-25T05:09:12;18.20;99.90
19888;DHT22;10106;51.332;12.336;2023-05-25T05:11:38;18.50;99.90
19888;DHT22;10106;51.332;12.336;2023-05-25T05:14:04;18.80;99.90
19888;DHT22;10106;51.332;12.336;2023-05-25T05:16:30;19.10;99.90
19888;DHT22;10106;51.332;12.336;2023-05-25T05:19:00;19.20;99.90
19888;DHT22;10106;51.332;12.336;2023-05-25T05:21:26;19.20;99.90
19888;DHT22;10106;51.332;12.336;2023-05-25T05:23:52;19.40;99.90
19888;DHT22;10106;51.332;12.336;2023-05-25T05:26:18;19.60;99.90
19888;DHT22;10106;51.332;12.336;2023-05-25T05:28:44;19.60;99.90
19888;DHT22;10106;51.332;12.336;2023-05-25T05:31:09;19.80;99.90
19888;DHT22;10106;51.332;12.336;2023-05-25T05:33:36;19.80;99.90
19888;DHT22;10106;51.332;12.336;2023-05-25T05:36:02;19.80;99.90
19888;DHT22;10106;51.332;12.336;2023-05-25T05:38:29;19.50;99.90
19888;DHT22;10106;51.332;12.336;2023-05-25T05:40:55;19.20;99.90
19888;DHT22;10106;51.332;12.336;2023-05-25T05:43:21;18.80;99.90
19888;DHT22;10106;51.332;12.336;2023-05-25T05:45:47;18.00;99.90
19888;DHT22;10106;51.332;12.336;2023-05-25T05:48:12;17.30;99.90
19888;DHT22;10106;51.332;12.336;2023-05-25T05:50:39;16.60;99.90
19888;DHT22;10106;51.332;12.336;2023-05-25T05:53:05;16.50;99.90
19888;DHT22;10106;51.332;12.336;2023-05-25T05:55:32;16.40;99.90
19888;DHT22;10106;51.332;12.336;2023-05-25T05:57:57;16.80;99.90
19888;DHT22;10106;51.332;12.336;2023-05-25T06:00:24;17.40;99.90
19888;DHT22;10106;51.332;12.336;2023-05-25T06:02:50;17.70;99.90
19888;DHT22;10106;51.332;12.336;2023-05-25T06:05:16;17.90;99.90
19888;DHT22;10106;51.332;12.336;2023-05-25T06:07:42;18.50;99.90
19888;DHT22;10106;51.332;12.336;2023-05-25T06:10:08;19.20;99.90
19888;DHT22;10106;51.332;12.336;2023-05-25T06:12:35;19.80;99.90
19888;DHT22;10106;51.332;12.336;2023-05-25T06:15:01;19.80;99.90
19888;DHT22;10106;51.332;12.336;2023-05-25T06:17:27;20.30;99.90
19888;DHT22;10106;51.332;12.336;2023-05-25T06:19:54;21.40;99.90
19888;DHT22;10106;51.332;12.336;2023-05-25T06:22:20;22.70;99.90
19888;DHT22;10106;51.332;12.336;2023-05-25T06:27:14;24.30;95.40
19888;DHT22;10106;51.332;12.336;2023-05-25T06:29:41;24.80;94.00
19888;DHT22;10106;51.332;12.336;2023-05-25T06:32:07;25.50;92.30
19888;DHT22;10106;51.332;12.336;2023-05-25T06:34:35;25.40;91.50
19888;DHT22;10106;51.332;12.336;2023-05-25T06:37:00;25.90;90.50
19888;DHT22;10106;51.332;12.336;2023-05-25T06:39:26;26.40;86.30
19888;DHT22;10106;51.332;12.336;2023-05-25T06:41:51;26.90;83.80
19888;DHT22;10106;51.332;12.336;2023-05-25T06:44:17;27.20;80.00
19888;DHT22;10106;51.332;12.336;2023-05-25T06:46:43;27.20;79.30
19888;DHT22;10106;51.332;12.336;2023-05-25T06:49:09;26.80;79.10
19888;DHT22;10106;51.332;12.336;2023-05-25T06:51:35;27.30;77.10
19888;DHT22;10106;51.332;12.336;2023-05-25T06:54:01;26.90;77.70
19888;DHT22;10106;51.332;12.336;2023-05-25T06:56:27;27.50;76.10
19888;DHT22;10106;51.332;12.336;2023-05-25T06:58:53;28.70;73.80
19888;DHT22;10106;51.332;12.336;2023-05-25T07:01:18;28.30;72.60
19888;DHT22;10106;51.332;12.336;2023-05-25T07:03:44;28.40;72.20
19888;DHT22;10106;51.332;12.336;2023-05-25T07:06:09;28.80;70.80
19888;DHT22;10106;51.332;12.336;2023-05-25T07:08:36;29.30;69.30
19888;DHT22;10106;51.332;12.336;2023-05-25T07:11:02;29.10;69.20
19888;DHT22;10106;51.332;12.336;2023-05-25T07:13:27;29.50;68.30
19888;DHT22;10106;51.332;12.336;2023-05-25T07:15:53;29.90;67.40
19888;DHT22;10106;51.332;12.336;2023-05-25T07:18:20;29.90;65.10
19888;DHT22;10106;51.332;12.336;2023-05-25T07:20:45;30.30;64.30
19888;DHT22;10106;51.332;12.336;2023-05-25T07:23:12;29.90;64.40
19888;DHT22;10106;51.332;12.336;2023-05-25T07:25:39;28.30;65.90
19888;DHT22;10106;51.332;12.336;2023-05-25T07:28:04;26.60;68.90
19888;DHT22;10106;51.332;12.336;2023-05-25T07:30:30;26.30;71.00
19888;DHT22;10106;51.332;12.336;2023-05-25T07:32:56;27.10;71.00
19888;DHT22;10106;51.332;12.336;2023-05-25T07:35:22;28.00;69.70
19888;DHT22;10106;51.332;12.336;2023-05-25T07:37:56;29.00;67.00
19888;DHT22;10106;51.332;12.336;2023-05-25T07:40:26;28.90;66.90
19888;DHT22;10106;51.332;12.336;2023-05-25T07:42:53;30.00;65.40
19888;DHT22;10106;51.332;12.336;2023-05-25T07:45:19;30.10;62.10
19888;DHT22;10106;51.332;12.336;2023-05-25T07:47:45;29.90;62.80
19888;DHT22;10106;51.332;12.336;2023-05-25T07:50:12;28.70;60.80
19888;DHT22;10106;51.332;12.336;2023-05-25T07:52:38;27.30;63.40
19888;DHT22;10106;51.332;12.336;2023-05-25T07:55:05;26.60;66.90
19888;DHT22;10106;51.332;12.336;2023-05-25T07:57:31;25.90;66.40
19888;DHT22;10106;51.332;12.336;2023-05-25T07:59:58;26.80;67.80
19888;DHT22;10106;51.332;12.336;2023-05-25T08:02:24;28.20;64.00
19888;DHT22;10106;51.332;12.336;2023-05-25T08:04:50;28.30;63.70
19888;DHT22;10106;51.332;12.336;2023-05-25T08:07:18;26.90;63.70
19888;DHT22;10106;51.332;12.336;2023-05-25T08:09:44;25.00;67.50
19888;DHT22;10106;51.332;12.336;2023-05-25T08:12:10;23.30;71.00
19888;DHT22;10106;51.332;12.336;2023-05-25T08:14:36;22.00;73.10
19888;DHT22;10106;51.332;12.336;2023-05-25T08:17:02;21.60;75.70
19888;DHT22;10106;51.332;12.336;2023-05-25T08:21:58;20.70;78.90
19888;DHT22;10106;51.332;12.336;2023-05-25T08:24:24;20.10;81.10
19888;DHT22;10106;51.332;12.336;2023-05-25T08:26:51;19.80;85.00
19888;DHT22;10106;51.332;12.336;2023-05-25T08:29:17;19.30;88.00
19888;DHT22;10106;51.332;12.336;2023-05-25T08:31:43;19.10;90.30
19888;DHT22;10106;51.332;12.336;2023-05-25T08:34:14;19.10;91.50
19888;DHT22;10106;51.332;12.336;2023-05-25T08:36:40;19.30;92.30
19888;DHT22;10106;51.332;12.336;2023-05-25T08:39:06;20.60;91.90
19888;DHT22;10106;51.332;12.336;2023-05-25T08:41:41;23.30;89.80
19888;DHT22;10106;51.332;12.336;2023-05-25T08:44:07;24.00;84.40
19888;DHT22;10106;51.332;12.336;2023-05-25T08:46:36;22.80;83.90
19888;DHT22;10106;51.332;12.336;2023-05-25T08:49:13;21.50;86.40
19888;DHT22;10106;51.332;12.336;2023-05-25T08:51:50;20.60;89.60
19888;DHT22;10106;51.332;12.336;2023-05-25T08:54:33;21.20;90.60
19888;DHT22;10106;51.332;12.336;2023-05-25T09:02:59;25.80;72.60
19888;DHT22;10106;51.332;12.336;2023-05-25T09:05:27;24.20;72.20
19888;DHT22;10106;51.332;12.336;2023-05-25T09:07:53;22.80;76.90
19888;DHT22;10106;51.332;12.336;2023-05-25T09:10:23;21.60;80.60
19888;DHT22;10106;51.332;12.336;2023-05-25T09:12:50;20.90;84.30
19888;DHT22;10106;51.332;12.336;2023-05-25T09:15:16;20.60;85.40
19888;DHT22;10106;51.332;12.336;2023-05-25T09:17:42;21.50;85.40
19888;DHT22;10106;51.332;12.336;2023-05-25T09:20:09;23.30;85.80
19888;DHT22;10106;51.332;12.336;2023-05-25T09:22:35;25.20;76.40
19888;DHT22;10106;51.332;12.336;2023-05-25T09:25:06;26.70;69.30
19888;DHT22;10106;51.332;12.336;2023-05-25T09:27:36;28.10;63.90
19888;DHT22;10106;51.332;12.336;2023-05-25T09:30:03;27.10;61.80
19888;DHT22;10106;51.332;12.336;2023-05-25T09:32:30;25.50;61.20
19888;DHT22;10106;51.332;12.336;2023-05-25T09:35:08;23.70;64.10
19888;DHT22;10106;51.332;12.336;2023-05-25T09:37:35;23.90;66.70
19888;DHT22;10106;51.332;12.336;2023-05-25T09:40:02;25.80;65.40
19888;DHT22;10106;51.332;12.336;2023-05-25T09:42:30;26.90;62.80
19888;DHT22;10106;51.332;12.336;2023-05-25T09:44:57;26.50;62.50
19888;DHT22;10106;51.332;12.336;2023-05-25T09:47:25;27.20;62.20
19888;DHT22;10106;51.332;12.336;2023-05-25T09:49:52;25.80;61.70
19888;DHT22;10106;51.332;12.336;2023-05-25T09:52:18;24.20;62.70
19888;DHT22;10106;51.332;12.336;2023-05-25T09:54:49;23.20;65.70
19888;DHT22;10106;51.332;12.336;2023-05-25T09:57:17;24.50;65.50
19888;DHT22;10106;51.332;12.336;2023-05-25T09:59:43;26.40;62.80
19888;DHT22;10106;51.332;12.336;2023-05-25T10:02:10;27.90;59.80
19888;DHT22;10106;51.332;12.336;2023-05-25T10:04:36;29.20;57.00
19888;DHT22;10106;51.332;12.336;2023-05-25T10:07:03;28.00;55.00
19888;DHT22;10106;51.332;12.336;2023-05-25T10:09:30;25.90;58.80
19888;DHT22;10106;51.332;12.336;2023-05-25T10:11:57;24.20;59.60
19888;DHT22;10106;51.332;12.336;2023-05-25T10:14:28;23.10;61.80
19888;DHT22;10106;51.332;12.336;2023-05-25T10:16:58;22.40;64.60
19888;DHT22;10106;51.332;12.336;2023-05-25T10:22:05;21.30;67.90
19888;DHT22;10106;51.332;12.336;2023-05-25T10:24:55;21.40;67.80
19888;DHT22;10106;51.332;12.336;2023-05-25T10:27:23;21.80;67.60
19888;DHT22;10106;51.332;12.336;2023-05-25T10:29:51;22.20;66.70
19888;DHT22;10106;51.332;12.336;2023-05-25T10:32:17;22.50;66.50
19888;DHT22;10106;51.332;12.336;2023-05-25T10:34:43;22.70;65.30
19888;DHT22;10106;51.332;12.336;2023-05-25T10:37:11;23.00;64.10
19888;DHT22;10106;51.332;12.336;2023-05-25T10:39:40;22.90;65.40
19888;DHT22;10106;51.332;12.336;2023-05-25T10:42:08;23.00;65.90
19888;DHT22;10106;51.332;12.336;2023-05-25T10:44:36;23.00;65.10
19888;DHT22;10106;51.332;12.336;2023-05-25T10:47:02;23.50;64.90
19888;DHT22;10106;51.332;12.336;2023-05-25T10:49:32;23.40;64.30
19888;DHT22;10106;51.332;12.336;2023-05-25T10:51:59;23.30;64.60
19888;DHT22;10106;51.332;12.336;2023-05-25T10:54:29;23.00;64.70
19888;DHT22;10106;51.332;12.336;2023-05-25T10:57:12;22.40;65.20
19888;DHT22;10106;51.332;12.336;2023-05-25T10:59:42;21.80;65.60
19888;DHT22;10106;51.332;12.336;2023-05-25T11:02:11;21.40;66.70
19888;DHT22;10106;51.332;12.336;2023-05-25T11:04:36;21.60;66.10
19888;DHT22;10106;51.332;12.336;2023-05-25T11:07:05;21.60;66.10
19888;DHT22;10106;51.332;12.336;2023-05-25T11:09:33;21.70;66.60
19888;DHT22;10106;51.332;12.336;2023-05-25T11:12:03;21.80;67.30
19888;DHT22;10106;51.332;12.336;2023-05-25T11:14:31;21.90;66.80
19888;DHT22;10106;51.332;12.336;2023-05-25T11:17:03;21.50;66.70
19888;DHT22;10106;51.332;12.336;2023-05-25T11:22:34;20.70;67.60
19888;DHT22;10106;51.332;12.336;2023-05-25T11:25:34;20.90;67.50
19888;DHT22;10106;51.332;12.336;2023-05-25T11:28:05;21.10;68.30
19888;DHT22;10106;51.332;12.336;2023-05-25T11:30:31;21.20;68.00
19888;DHT22;10106;51.332;12.336;2023-05-25T11:33:03;21.40;68.10
19888;DHT22;10106;51.332;12.336;2023-05-25T11:35:32;21.60;67.30
19888;DHT22;10106;51.332;12.336;2023-05-25T11:37:59;21.30;66.90
19888;DHT22;10106;51.332;12.336;2023-05-25T11:40:29;20.90;67.40
19888;DHT22;10106;51.332;12.336;2023-05-25T11:42:57;20.40;68.10
19888;DHT22;10106;51.332;12.336;2023-05-25T11:45:30;20.30;69.00
19888;DHT22;10106;51.332;12.336;2023-05-25T11:47:57;20.50;68.70
19888;DHT22;10106;51.332;12.336;2023-05-25T11:50:23;20.60;69.30
19888;DHT22;10106;51.332;12.336;2023-05-25T11:52:49;20.70;69.00
19888;DHT22;10106;51.332;12.336;2023-05-25T11:55:15;20.40;70.40
19888;DHT22;10106;51.332;12.336;2023-05-25T11:57:41;20.20;71.10
19888;DHT22;10106;51.332;12.336;2023-05-25T12:00:07;20.20;72.30
19888;DHT22;10106;51.332;12.336;2023-05-25T12:02:37;20.10;72.90
19888;DHT22;10106;51.332;12.336;2023-05-25T12:05:03;20.20;73.70
19888;DHT22;10106;51.332;12.336;2023-05-25T12:07:30;20.20;73.20
19888;DHT22;10106;51.332;12.336;2023-05-25T12:10:10;20.50;72.70
19888;DHT22;10106;51.332;12.336;2023-05-25T12:12:41;20.70;71.30
19888;DHT22;10106;51.332;12.336;2023-05-25T12:15:10;20.70;70.90
19888;DHT22;10106;51.332;12.336;2023-05-25T12:17:39;20.70;71.60
19888;DHT22;10106;51.332;12.336;2023-05-25T12:20:05;20.40;71.50
19888;DHT22;10106;51.332;12.336;2023-05-25T12:22:32;20.20;71.80
19888;DHT22;10106;51.332;12.336;2023-05-25T12:25:13;20.30;71.70
19888;DHT22;10106;51.332;12.336;2023-05-25T12:27:39;20.10;72.30
19888;DHT22;10106;51.332;12.336;2023-05-25T12:30:07;20.30;72.50
19888;DHT22;10106;51.332;12.336;2023-05-25T12:32:34;20.40;70.90
19888;DHT22;10106;51.332;12.336;2023-05-25T12:35:04;20.50;70.50
19888;DHT22;10106;51.332;12.336;2023-05-25T12:37:31;20.50;70.10
19888;DHT22;10106;51.332;12.336;2023-05-25T12:39:57;20.70;69.10
19888;DHT22;10106;51.332;12.336;2023-05-25T12:42:23;20.70;68.90
19888;DHT22;10106;51.332;12.336;2023-05-25T12:44:56;20.80;69.50
19888;DHT22;10106;51.332;12.336;2023-05-25T12:47:23;21.00;68.60
19888;DHT22;10106;51.332;12.336;2023-05-25T12:50:13;20.90;68.50
19888;DHT22;10106;51.332;12.336;2023-05-25T12:52:43;20.80;68.50
19888;DHT22;10106;51.332;12.336;2023-05-25T12:55:25;20.80;69.20
19888;DHT22;10106;51.332;12.336;2023-05-25T12:57:59;20.90;69.90
19888;DHT22;10106;51.332;12.336;2023-05-25T13:00:30;20.80;71.10
19888;DHT22;10106;51.332;12.336;2023-05-25T13:02:57;20.70;71.20
19888;DHT22;10106;51.332;12.336;2023-05-25T13:05:24;20.40;71.90
19888;DHT22;10106;51.332;12.336;2023-05-25T13:07:54;20.30;72.40
19888;DHT22;10106;51.332;12.336;2023-05-25T13:10:21;20.30;71.40
19888;DHT22;10106;51.332;12.336;2023-05-25T13:12:48;20.40;71.20
19888;DHT22;10106;51.332;12.336;2023-05-25T13:15:19;20.40;69.10
19888;DHT22;10106;51.332;12.336;2023-05-25T13:17:49;20.40;68.60
19888;DHT22;10106;51.332;12.336;2023-05-25T13:20:16;20.40;69.50
19888;DHT22;10106;51.332;12.336;2023-05-25T13:22:43;20.50;69.50
19888;DHT22;10106;51.332;12.336;2023-05-25T13:25:13;20.90;71.10
19888;DHT22;10106;51.332;12.336;2023-05-25T13:27:47;21.00;68.90
19888;DHT22;10106;51.332;12.336;2023-05-25T13:30:13;21.00;68.50
19888;DHT22;10106;51.332;12.336;2023-05-25T13:32:40;20.80;68.40
19888;DHT22;10106;51.332;12.336;2023-05-25T13:35:07;20.60;68.90
19888;DHT22;10106;51.332;12.336;2023-05-25T13:37:37;20.70;70.00
19888;DHT22;10106;51.332;12.336;2023-05-25T13:40:03;20.90;69.50
19888;DHT22;10106;51.332;12.336;2023-05-25T13:42:29;21.10;69.10
19888;DHT22;10106;51.332;12.336;2023-05-25T13:44:56;21.30;67.80
19888;DHT22;10106;51.332;12.336;2023-05-25T13:47:22;21.30;68.60
19888;DHT22;10106;51.332;12.336;2023-05-25T13:49:48;21.40;69.00
19888;DHT22;10106;51.332;12.336;2023-05-25T13:52:19;21.50;68.90
19888;DHT22;10106;51.332;12.336;2023-05-25T13:54:45;21.40;68.20
19888;DHT22;10106;51.332;12.336;2023-05-25T13:57:11;21.10;69.20
19888;DHT22;10106;51.332;12.336;2023-05-25T13:59:37;21.20;69.50
19888;DHT22;10106;51.332;12.336;2023-05-25T14:02:03;21.20;69.40
19888;DHT22;10106;51.332;12.336;2023-05-25T14:04:30;20.60;71.10
19888;DHT22;10106;51.332;12.336;2023-05-25T14:06:56;20.40;72.40
19888;DHT22;10106;51.332;12.336;2023-05-25T14:09:22;20.50;72.30
19888;DHT22;10106;51.332;12.336;2023-05-25T14:11:48;20.40;72.20
19888;DHT22;10106;51.332;12.336;2023-05-25T14:14:14;20.50;73.00
19888;DHT22;10106;51.332;12.336;2023-05-25T14:16:40;20.50;73.30
19888;DHT22;10106;51.332;12.336;2023-05-25T14:19:06;20.60;74.00
19888;DHT22;10106;51.332;12.336;2023-05-25T14:21:32;20.60;73.20
19888;DHT22;10106;51.332;12.336;2023-05-25T14:23:58;20.60;73.90
19888;DHT22;10106;51.332;12.336;2023-05-25T14:26:24;20.70;72.60
19888;DHT22;10106;51.332;12.336;2023-05-25T14:28:51;20.80;72.90
19888;DHT22;10106;51.332;12.336;2023-05-25T14:31:18;20.80;71.70
19888;DHT22;10106;51.332;12.336;2023-05-25T14:33:44;20.70;71.50
19888;DHT22;10106;51.332;12.336;2023-05-25T14:36:10;20.70;71.40
19888;DHT22;10106;51.332;12.336;2023-05-25T14:38:36;20.50;72.30
19888;DHT22;10106;51.332;12.336;2023-05-25T14:41:02;20.20;74.10
19888;DHT22;10106;51.332;12.336;2023-05-25T14:43:27;20.00;74.50
19888;DHT22;10106;51.332;12.336;2023-05-25T14:45:55;19.70;74.30
19888;DHT22;10106;51.332;12.336;2023-05-25T14:48:21;19.80;74.90
19888;DHT22;10106;51.332;12.336;2023-05-25T14:50:50;20.00;74.10
19888;DHT22;10106;51.332;12.336;2023-05-25T14:53:17;19.90;74.10
19888;DHT22;10106;51.332;12.336;2023-05-25T14:55:42;19.60;74.50
19888;DHT22;10106;51.332;12.336;2023-05-25T14:58:08;19.60;75.00
19888;DHT22;10106;51.332;12.336;2023-05-25T15:00:35;19.70;75.40
19888;DHT22;10106;51.332;12.336;2023-05-25T15:03:01;19.80;74.70
19888;DHT22;10106;51.332;12.336;2023-05-25T15:05:27;19.90;74.60
19888;DHT22;10106;51.332;12.336;2023-05-25T15:07:53;19.90;74.70
19888;DHT22;10106;51.332;12.336;2023-05-25T15:10:19;20.00;75.00
19888;DHT22;10106;51.332;12.336;2023-05-25T15:12:46;19.90;75.50
19888;DHT22;10106;51.332;12.336;2023-05-25T15:15:12;19.80;75.90
19888;DHT22;10106;51.332;12.336;2023-05-25T15:17:39;19.70;76.00
19888;DHT22;10106;51.332;12.336;2023-05-25T15:20:05;19.50;76.20
19888;DHT22;10106;51.332;12.336;2023-05-25T15:22:31;19.40;76.70
19888;DHT22;10106;51.332;12.336;2023-05-25T15:24:57;19.30;77.70
19888;DHT22;10106;51.332;12.336;2023-05-25T15:27:30;19.40;77.80
19888;DHT22;10106;51.332;12.336;2023-05-25T15:29:58;19.50;77.60
19888;DHT22;10106;51.332;12.336;2023-05-25T15:32:27;19.60;77.20
19888;DHT22;10106;51.332;12.336;2023-05-25T15:34:53;19.60;77.30
19888;DHT22;10106;51.332;12.336;2023-05-25T15:37:19;19.70;77.10
19888;DHT22;10106;51.332;12.336;2023-05-25T15:39:45;19.60;76.30
19888;DHT22;10106;51.332;12.336;2023-05-25T15:42:11;19.50;76.70
19888;DHT22;10106;51.332;12.336;2023-05-25T15:44:37;19.40;77.20
19888;DHT22;10106;51.332;12.336;2023-05-25T15:47:03;19.40;78.00
19888;DHT22;10106;51.332;12.336;2023-05-25T15:49:33;19.40;78.40
19888;DHT22;10106;51.332;12.336;2023-05-25T15:52:01;19.30;78.60